sensor_id;sensor_type;location;lat;lon;timestamp;P1;durP1;ratioP1;P2;durP2;ratioP2
76098;SDS011;64828;49.956;8.636;2023-07-08T00:00:20;9.65;;;5.60;;
76098;SDS011;64828;49.956;8.636;2023-07-08T00:00:45;8.68;;;5.53;;
76098;SDS011;64828;49.956;8.636;2023-07-08T00:01:08;8.43;;;5.53;;
76098;SDS011;64828;49.956;8.636;2023-07-08T00:01:28;8.45;;;5.60;;
76098;SDS011;64828;49.956;8.636;2023-07-08T00:01:44;9.13;;;5.63;;
76098;SDS011;64828;49.956;8.636;2023-07-08T00:01:59;9.65;;;5.80;;
76098;SDS011;64828;49.956;8.636;2023-07-08T00:02:15;9.45;;;5.88;;
76098;SDS011;64828;49.956;8.636;2023-07-08T00:02:30;10.30;;;5.97;;
76098;SDS011;64828;49.956;8.636;2023-07-08T00:02:46;9.80;;;5.57;;
76098;SDS011;64828;49.956;8.636;2023-07-08T00:03:02;8.80;;;5.50;;
76098;SDS011;64828;49.956;8.636;2023-07-08T00:03:18;9.23;;;6.17;;
76098;SDS011;64828;49.956;8.636;2023-07-08T00:03:34;10.10;;;6.20;;
76098;SDS011;64828;49.956;8.636;2023-07-08T00:03:50;8.87;;;5.20;;
76098;SDS011;64828;49.956;8.636;2023-07-08T00:04:05;10.63;;;5.45;;
76098;SDS011;64828;49.956;8.636;2023-07-08T00:04:22;12.18;;;5.78;;
76098;SDS011;64828;49.956;8.636;2023-07-08T00:04:38;9.77;;;5.50;;
76098;SDS011;64828;49.956;8.636;2023-07-08T00:04:55;8.55;;;5.35;;
76098;SDS011;64828;49.956;8.636;2023-07-08T00:05:11;8.52;;;5.45;;
76098;SDS011;64828;49.956;8.636;2023-07-08T00:05:30;9.20;;;5.53;;
76098;SDS011;64828;49.956;8.636;2023-07-08T00:05:47;10.10;;;5.70;;
76098;SDS011;64828;49.956;8.636;2023-07-08T00:06:09;8.85;;;5.70;;
76098;SDS011;64828;49.956;8.636;2023-07-08T00:06:32;9.05;;;5.78;;
76098;SDS011;64828;49.956;8.636;2023-07-08T00:06:50;9.45;;;5.90;;
76098;SDS011;64828;49.956;8.636;2023-07-08T00:07:07;9.00;;;5.90;;
76098;SDS011;64828;49.956;8.636;2023-07-08T00:07:28;8.23;;;5.50;;
76098;SDS011;64828;49.956;8.636;2023-07-08T00:07:44;9.00;;;5.47;;
76098;SDS011;64828;49.956;8.636;2023-07-08T00:08:00;9.38;;;5.63;;
76098;SDS011;64828;49.956;8.636;2023-07-08T00:08:17;9.50;;;5.97;;
76098;SDS011;64828;49.956;8.636;2023-07-08T00:08:35;10.15;;;5.95;;
76098;SDS011;64828;49.956;8.636;2023-07-08T00:08:50;9.50;;;5.57;;
76098;SDS011;64828;49.956;8.636;2023-07-08T00:09:10;10.10;;;5.67;;
76098;SDS011;64828;49.956;8.636;2023-07-08T00:09:30;10.70;;;5.88;;
76098;SDS011;64828;49.956;8.636;2023-07-08T00:09:45;9.85;;;5.82;;
76098;SDS011;64828;49.956;8.636;2023-07-08T00:10:01;8.73;;;5.43;;
76098;SDS011;64828;49.956;8.636;2023-07-08T00:10:18;9.55;;;5.68;;
76098;SDS011;64828;49.956;8.636;2023-07-08T00:10:37;10.05;;;5.93;;
76098;SDS011;64828;49.956;8.636;2023-07-08T00:10:53;10.75;;;5.93;;
76098;SDS011;64828;49.956;8.636;2023-07-08T00:11:12;10.05;;;5.72;;
76098;SDS011;64828;49.956;8.636;2023-07-08T00:11:30;9.13;;;5.72;;
76098;SDS011;64828;49.956;8.636;2023-07-08T00:11:45;9.05;;;5.90;;
76098;SDS011;64828;49.956;8.636;2023-07-08T00:12:01;9.93;;;5.93;;
76098;SDS011;64828;49.956;8.636;2023-07-08T00:12:24;9.20;;;5.43;;
76098;SDS011;64828;49.956;8.636;2023-07-08T00:12:40;8.13;;;5.37;;
76098;SDS011;64828;49.956;8.636;2023-07-08T00:12:57;9.00;;;5.75;;
76098;SDS011;64828;49.956;8.636;2023-07-08T00:13:13;9.68;;;6.13;;
76098;SDS011;64828;49.956;8.636;2023-07-08T00:13:29;9.52;;;6.10;;
76098;SDS011;64828;49.956;8.636;2023-07-08T00:13:44;8.80;;;5.83;;
76098;SDS011;64828;49.956;8.636;2023-07-08T00:14:00;8.35;;;5.55;;
76098;SDS011;64828;49.956;8.636;2023-07-08T00:14:16;8.43;;;5.38;;
76098;SDS011;64828;49.956;8.636;2023-07-08T00:14:31;8.83;;;5.60;;
76098;SDS011;64828;49.956;8.636;2023-07-08T00:14:47;9.73;;;5.65;;
76098;SDS011;64828;49.956;8.636;2023-07-08T00:15:03;8.70;;;5.57;;
76098;SDS011;64828;49.956;8.636;2023-07-08T00:15:21;7.60;;;5.20;;
76098;SDS011;64828;49.956;8.636;2023-07-08T00:15:43;8.70;;;5.70;;
76098;SDS011;64828;49.956;8.636;2023-07-08T00:15:59;8.45;;;5.53;;
76098;SDS011;64828;49.956;8.636;2023-07-08T00:16:16;8.37;;;5.47;;
76098;SDS011;64828;49.956;8.636;2023-07-08T00:16:34;8.43;;;6.00;;
76098;SDS011;64828;49.956;8.636;2023-07-08T00:16:50;8.73;;;5.75;;
76098;SDS011;64828;49.956;8.636;2023-07-08T00:17:10;9.32;;;5.70;;
76098;SDS011;64828;49.956;8.636;2023-07-08T00:17:28;8.65;;;5.43;;
76098;SDS011;64828;49.956;8.636;2023-07-08T00:17:43;8.98;;;5.55;;
76098;SDS011;64828;49.956;8.636;2023-07-08T00:17:59;9.75;;;5.68;;
76098;SDS011;64828;49.956;8.636;2023-07-08T00:18:17;9.65;;;5.55;;
76098;SDS011;64828;49.956;8.636;2023-07-08T00:18:33;9.05;;;5.50;;
76098;SDS011;64828;49.956;8.636;2023-07-08T00:18:49;8.57;;;5.47;;
76098;SDS011;64828;49.956;8.636;2023-07-08T00:19:07;8.53;;;5.87;;
76098;SDS011;64828;49.956;8.636;2023-07-08T00:19:25;10.15;;;6.20;;
76098;SDS011;64828;49.956;8.636;2023-07-08T00:19:40;9.52;;;6.40;;
76098;SDS011;64828;49.956;8.636;2023-07-08T00:19:56;8.80;;;6.10;;
76098;SDS011;64828;49.956;8.636;2023-07-08T00:20:47;11.68;;;6.07;;
76098;SDS011;64828;49.956;8.636;2023-07-08T00:21:08;10.32;;;5.60;;
76098;SDS011;64828;49.956;8.636;2023-07-08T00:21:31;9.80;;;5.57;;
76098;SDS011;64828;49.956;8.636;2023-07-08T00:21:47;9.57;;;5.97;;
76098;SDS011;64828;49.956;8.636;2023-07-08T00:22:07;9.55;;;5.97;;
76098;SDS011;64828;49.956;8.636;2023-07-08T00:22:29;8.38;;;5.30;;
76098;SDS011;64828;49.956;8.636;2023-07-08T00:22:44;8.87;;;5.50;;
76098;SDS011;64828;49.956;8.636;2023-07-08T00:23:01;9.18;;;5.80;;
76098;SDS011;64828;49.956;8.636;2023-07-08T00:23:17;8.95;;;5.70;;
76098;SDS011;64828;49.956;8.636;2023-07-08T00:23:36;9.57;;;5.60;;
76098;SDS011;64828;49.956;8.636;2023-07-08T00:23:52;9.60;;;5.63;;
76098;SDS011;64828;49.956;8.636;2023-07-08T00:24:08;9.05;;;5.70;;
76098;SDS011;64828;49.956;8.636;2023-07-08T00:24:24;9.80;;;5.72;;
76098;SDS011;64828;49.956;8.636;2023-07-08T00:24:41;10.40;;;5.57;;
76098;SDS011;64828;49.956;8.636;2023-07-08T00:24:57;9.65;;;5.50;;
76098;SDS011;64828;49.956;8.636;2023-07-08T00:25:13;9.80;;;5.72;;
76098;SDS011;64828;49.956;8.636;2023-07-08T00:25:30;9.60;;;5.75;;
76098;SDS011;64828;49.956;8.636;2023-07-08T00:25:47;9.27;;;5.88;;
76098;SDS011;64828;49.956;8.636;2023-07-08T00:26:08;9.43;;;5.85;;
76098;SDS011;64828;49.956;8.636;2023-07-08T00:26:45;8.55;;;5.43;;
76098;SDS011;64828;49.956;8.636;2023-07-08T00:27:01;9.00;;;5.70;;
76098;SDS011;64828;49.956;8.636;2023-07-08T00:27:16;8.77;;;5.53;;
76098;SDS011;64828;49.956;8.636;2023-07-08T00:27:32;8.30;;;5.45;;
76098;SDS011;64828;49.956;8.636;2023-07-08T00:27:48;8.73;;;5.70;;
76098;SDS011;64828;49.956;8.636;2023-07-08T00:28:07;8.90;;;5.97;;
76098;SDS011;64828;49.956;8.636;2023-07-08T00:28:32;9.77;;;5.78;;
76098;SDS011;64828;49.956;8.636;2023-07-08T00:28:47;9.13;;;5.70;;
76098;SDS011;64828;49.956;8.636;2023-07-08T00:29:08;8.07;;;5.65;;
76098;SDS011;64828;49.956;8.636;2023-07-08T00:29:27;9.10;;;5.75;;
76098;SDS011;64828;49.956;8.636;2023-07-08T00:29:43;9.90;;;6.10;;
76098;SDS011;64828;49.956;8.636;2023-07-08T00:29:59;9.90;;;5.97;;
76098;SDS011;64828;49.956;8.636;2023-07-08T00:30:37;9.13;;;6.15;;
76098;SDS011;64828;49.956;8.636;2023-07-08T00:30:53;9.27;;;6.20;;
76098;SDS011;64828;49.956;8.636;2023-07-08T00:31:10;9.93;;;6.57;;
76098;SDS011;64828;49.956;8.636;2023-07-08T00:31:25;9.65;;;6.10;;
76098;SDS011;64828;49.956;8.636;2023-07-08T00:31:41;10.25;;;5.57;;
76098;SDS011;64828;49.956;8.636;2023-07-08T00:31:57;11.20;;;5.77;;
76098;SDS011;64828;49.956;8.636;2023-07-08T00:32:13;10.32;;;5.72;;
76098;SDS011;64828;49.956;8.636;2023-07-08T00:32:30;8.68;;;5.50;;
76098;SDS011;64828;49.956;8.636;2023-07-08T00:32:46;9.03;;;6.13;;
76098;SDS011;64828;49.956;8.636;2023-07-08T00:33:02;9.93;;;6.22;;
76098;SDS011;64828;49.956;8.636;2023-07-08T00:33:18;8.93;;;5.83;;
76098;SDS011;64828;49.956;8.636;2023-07-08T00:33:33;8.57;;;5.78;;
76098;SDS011;64828;49.956;8.636;2023-07-08T00:33:49;9.20;;;5.77;;
76098;SDS011;64828;49.956;8.636;2023-07-08T00:34:05;10.27;;;5.77;;
76098;SDS011;64828;49.956;8.636;2023-07-08T00:34:21;9.57;;;5.78;;
76098;SDS011;64828;49.956;8.636;2023-07-08T00:34:36;8.73;;;5.55;;
76098;SDS011;64828;49.956;8.636;2023-07-08T00:34:52;10.57;;;5.50;;
76098;SDS011;64828;49.956;8.636;2023-07-08T00:35:07;10.68;;;5.72;;
76098;SDS011;64828;49.956;8.636;2023-07-08T00:35:26;9.77;;;5.73;;
76098;SDS011;64828;49.956;8.636;2023-07-08T00:35:48;9.40;;;5.93;;
76098;SDS011;64828;49.956;8.636;2023-07-08T00:36:08;9.23;;;5.90;;
76098;SDS011;64828;49.956;8.636;2023-07-08T00:36:27;9.43;;;5.82;;
76098;SDS011;64828;49.956;8.636;2023-07-08T00:36:43;8.82;;;5.78;;
76098;SDS011;64828;49.956;8.636;2023-07-08T00:36:58;9.50;;;5.50;;
76098;SDS011;64828;49.956;8.636;2023-07-08T00:37:14;10.13;;;5.70;;
76098;SDS011;64828;49.956;8.636;2023-07-08T00:37:29;9.23;;;6.00;;
76098;SDS011;64828;49.956;8.636;2023-07-08T00:37:45;8.93;;;5.90;;
76098;SDS011;64828;49.956;8.636;2023-07-08T00:38:04;8.80;;;5.80;;
76098;SDS011;64828;49.956;8.636;2023-07-08T00:38:36;8.57;;;6.18;;
76098;SDS011;64828;49.956;8.636;2023-07-08T00:38:51;9.67;;;5.80;;
76098;SDS011;64828;49.956;8.636;2023-07-08T00:39:12;9.63;;;5.88;;
76098;SDS011;64828;49.956;8.636;2023-07-08T00:39:32;8.60;;;5.68;;
76098;SDS011;64828;49.956;8.636;2023-07-08T00:39:47;8.23;;;5.67;;
76098;SDS011;64828;49.956;8.636;2023-07-08T00:40:16;9.35;;;5.72;;
76098;SDS011;64828;49.956;8.636;2023-07-08T00:40:34;9.15;;;6.00;;
76098;SDS011;64828;49.956;8.636;2023-07-08T00:40:51;9.10;;;5.60;;
76098;SDS011;64828;49.956;8.636;2023-07-08T00:41:32;9.25;;;5.95;;
76098;SDS011;64828;49.956;8.636;2023-07-08T00:41:56;12.05;;;6.00;;
76098;SDS011;64828;49.956;8.636;2023-07-08T00:42:17;9.88;;;5.97;;
76098;SDS011;64828;49.956;8.636;2023-07-08T00:42:39;8.82;;;5.97;;
76098;SDS011;64828;49.956;8.636;2023-07-08T00:42:57;9.35;;;5.75;;
76098;SDS011;64828;49.956;8.636;2023-07-08T00:43:22;8.50;;;5.47;;
76098;SDS011;64828;49.956;8.636;2023-07-08T00:43:52;9.82;;;6.10;;
76098;SDS011;64828;49.956;8.636;2023-07-08T00:44:12;8.77;;;5.47;;
76098;SDS011;64828;49.956;8.636;2023-07-08T00:44:28;9.18;;;5.35;;
76098;SDS011;64828;49.956;8.636;2023-07-08T00:44:43;9.68;;;5.53;;
76098;SDS011;64828;49.956;8.636;2023-07-08T00:44:59;10.20;;;5.90;;
76098;SDS011;64828;49.956;8.636;2023-07-08T00:45:15;9.23;;;5.97;;
76098;SDS011;64828;49.956;8.636;2023-07-08T00:45:43;8.77;;;5.80;;
76098;SDS011;64828;49.956;8.636;2023-07-08T00:46:46;9.60;;;5.95;;
76098;SDS011;64828;49.956;8.636;2023-07-08T00:47:16;8.98;;;5.80;;
76098;SDS011;64828;49.956;8.636;2023-07-08T00:47:31;9.00;;;6.03;;
76098;SDS011;64828;49.956;8.636;2023-07-08T00:47:47;8.97;;;5.90;;
76098;SDS011;64828;49.956;8.636;2023-07-08T00:48:07;9.32;;;5.68;;
76098;SDS011;64828;49.956;8.636;2023-07-08T00:48:43;9.07;;;5.70;;
76098;SDS011;64828;49.956;8.636;2023-07-08T00:49:30;9.95;;;6.45;;
76098;SDS011;64828;49.956;8.636;2023-07-08T00:49:56;8.63;;;5.93;;
76098;SDS011;64828;49.956;8.636;2023-07-08T00:50:18;9.50;;;6.15;;
76098;SDS011;64828;49.956;8.636;2023-07-08T00:50:34;9.55;;;5.93;;
76098;SDS011;64828;49.956;8.636;2023-07-08T00:50:50;8.80;;;5.93;;
76098;SDS011;64828;49.956;8.636;2023-07-08T00:51:08;8.85;;;5.95;;
76098;SDS011;64828;49.956;8.636;2023-07-08T00:51:27;10.73;;;5.75;;
76098;SDS011;64828;49.956;8.636;2023-07-08T00:51:42;9.55;;;5.68;;
76098;SDS011;64828;49.956;8.636;2023-07-08T00:52:42;9.68;;;5.85;;
76098;SDS011;64828;49.956;8.636;2023-07-08T00:52:42;8.80;;;5.70;;
76098;SDS011;64828;49.956;8.636;2023-07-08T00:53:52;9.68;;;6.72;;
76098;SDS011;64828;49.956;8.636;2023-07-08T00:54:11;8.82;;;5.93;;
76098;SDS011;64828;49.956;8.636;2023-07-08T00:54:29;9.18;;;6.00;;
76098;SDS011;64828;49.956;8.636;2023-07-08T00:54:44;10.63;;;6.53;;
76098;SDS011;64828;49.956;8.636;2023-07-08T00:55:04;10.10;;;6.40;;
76098;SDS011;64828;49.956;8.636;2023-07-08T00:55:24;10.02;;;6.30;;
76098;SDS011;64828;49.956;8.636;2023-07-08T00:55:40;11.00;;;6.20;;
76098;SDS011;64828;49.956;8.636;2023-07-08T00:56:09;11.63;;;6.07;;
76098;SDS011;64828;49.956;8.636;2023-07-08T00:56:53;9.30;;;6.15;;
76098;SDS011;64828;49.956;8.636;2023-07-08T00:57:17;8.93;;;5.63;;
76098;SDS011;64828;49.956;8.636;2023-07-08T00:57:35;11.05;;;6.10;;
76098;SDS011;64828;49.956;8.636;2023-07-08T00:57:56;12.15;;;6.53;;
76098;SDS011;64828;49.956;8.636;2023-07-08T00:58:12;10.87;;;6.03;;
76098;SDS011;64828;49.956;8.636;2023-07-08T00:58:29;10.15;;;5.93;;
76098;SDS011;64828;49.956;8.636;2023-07-08T00:58:56;8.75;;;6.05;;
76098;SDS011;64828;49.956;8.636;2023-07-08T00:59:26;10.25;;;5.88;;
76098;SDS011;64828;49.956;8.636;2023-07-08T01:00:02;9.82;;;5.85;;
76098;SDS011;64828;49.956;8.636;2023-07-08T01:00:25;10.18;;;6.10;;
76098;SDS011;64828;49.956;8.636;2023-07-08T01:00:42;10.20;;;6.10;;
76098;SDS011;64828;49.956;8.636;2023-07-08T01:00:58;10.00;;;6.17;;
76098;SDS011;64828;49.956;8.636;2023-07-08T01:01:16;10.15;;;6.47;;
76098;SDS011;64828;49.956;8.636;2023-07-08T01:01:34;10.05;;;6.28;;
76098;SDS011;64828;49.956;8.636;2023-07-08T01:01:56;9.38;;;5.70;;
76098;SDS011;64828;49.956;8.636;2023-07-08T01:02:17;8.65;;;5.60;;
76098;SDS011;64828;49.956;8.636;2023-07-08T01:02:40;10.55;;;5.97;;
76098;SDS011;64828;49.956;8.636;2023-07-08T01:03:03;10.68;;;5.85;;
76098;SDS011;64828;49.956;8.636;2023-07-08T01:03:18;10.45;;;6.13;;
76098;SDS011;64828;49.956;8.636;2023-07-08T01:03:45;9.73;;;6.13;;
76098;SDS011;64828;49.956;8.636;2023-07-08T01:04:20;10.10;;;6.40;;
76098;SDS011;64828;49.956;8.636;2023-07-08T01:05:34;9.35;;;6.00;;
76098;SDS011;64828;49.956;8.636;2023-07-08T01:05:53;10.05;;;6.50;;
76098;SDS011;64828;49.956;8.636;2023-07-08T01:06:14;9.52;;;6.35;;
76098;SDS011;64828;49.956;8.636;2023-07-08T01:06:34;10.10;;;6.18;;
76098;SDS011;64828;49.956;8.636;2023-07-08T01:06:55;9.82;;;6.05;;
76098;SDS011;64828;49.956;8.636;2023-07-08T01:07:14;8.38;;;5.60;;
76098;SDS011;64828;49.956;8.636;2023-07-08T01:07:36;8.65;;;6.03;;
76098;SDS011;64828;49.956;8.636;2023-07-08T01:07:57;9.80;;;6.53;;
76098;SDS011;64828;49.956;8.636;2023-07-08T01:08:18;9.65;;;6.10;;
76098;SDS011;64828;49.956;8.636;2023-07-08T01:08:34;9.27;;;6.00;;
76098;SDS011;64828;49.956;8.636;2023-07-08T01:08:49;9.80;;;5.90;;
76098;SDS011;64828;49.956;8.636;2023-07-08T01:09:09;10.38;;;5.82;;
76098;SDS011;64828;49.956;8.636;2023-07-08T01:09:30;12.30;;;6.63;;
76098;SDS011;64828;49.956;8.636;2023-07-08T01:09:58;10.55;;;6.38;;
76098;SDS011;64828;49.956;8.636;2023-07-08T01:10:24;10.95;;;6.38;;
76098;SDS011;64828;49.956;8.636;2023-07-08T01:10:49;9.63;;;6.40;;
76098;SDS011;64828;49.956;8.636;2023-07-08T01:11:11;10.73;;;6.20;;
76098;SDS011;64828;49.956;8.636;2023-07-08T01:11:26;10.75;;;5.93;;
76098;SDS011;64828;49.956;8.636;2023-07-08T01:11:42;9.53;;;5.80;;
76098;SDS011;64828;49.956;8.636;2023-07-08T01:11:58;9.98;;;6.10;;
76098;SDS011;64828;49.956;8.636;2023-07-08T01:12:21;10.00;;;5.95;;
76098;SDS011;64828;49.956;8.636;2023-07-08T01:12:46;9.82;;;6.35;;
76098;SDS011;64828;49.956;8.636;2023-07-08T01:13:09;9.45;;;6.40;;
76098;SDS011;64828;49.956;8.636;2023-07-08T01:13:31;8.40;;;6.05;;
76098;SDS011;64828;49.956;8.636;2023-07-08T01:13:55;9.07;;;6.20;;
76098;SDS011;64828;49.956;8.636;2023-07-08T01:14:14;9.32;;;6.10;;
76098;SDS011;64828;49.956;8.636;2023-07-08T01:14:35;9.57;;;6.05;;
76098;SDS011;64828;49.956;8.636;2023-07-08T01:14:57;9.13;;;6.10;;
76098;SDS011;64828;49.956;8.636;2023-07-08T01:15:17;9.63;;;6.25;;
76098;SDS011;64828;49.956;8.636;2023-07-08T01:15:37;10.18;;;6.30;;
76098;SDS011;64828;49.956;8.636;2023-07-08T01:16:00;11.07;;;6.18;;
76098;SDS011;64828;49.956;8.636;2023-07-08T01:16:16;10.85;;;6.00;;
76098;SDS011;64828;49.956;8.636;2023-07-08T01:16:32;9.65;;;5.90;;
76098;SDS011;64828;49.956;8.636;2023-07-08T01:16:48;9.68;;;5.90;;
76098;SDS011;64828;49.956;8.636;2023-07-08T01:17:06;9.95;;;6.13;;
76098;SDS011;64828;49.956;8.636;2023-07-08T01:17:22;9.15;;;6.07;;
76098;SDS011;64828;49.956;8.636;2023-07-08T01:17:38;9.40;;;5.93;;
76098;SDS011;64828;49.956;8.636;2023-07-08T01:17:54;9.63;;;6.07;;
76098;SDS011;64828;49.956;8.636;2023-07-08T01:18:12;10.15;;;6.18;;
76098;SDS011;64828;49.956;8.636;2023-07-08T01:18:35;9.90;;;6.53;;
76098;SDS011;64828;49.956;8.636;2023-07-08T01:18:52;10.43;;;6.80;;
76098;SDS011;64828;49.956;8.636;2023-07-08T01:19:09;9.95;;;6.30;;
76098;SDS011;64828;49.956;8.636;2023-07-08T01:19:33;11.45;;;6.50;;
76098;SDS011;64828;49.956;8.636;2023-07-08T01:19:48;9.43;;;6.23;;
76098;SDS011;64828;49.956;8.636;2023-07-08T01:20:06;9.48;;;6.43;;
76098;SDS011;64828;49.956;8.636;2023-07-08T01:20:27;10.18;;;6.50;;
76098;SDS011;64828;49.956;8.636;2023-07-08T01:20:45;9.77;;;6.57;;
76098;SDS011;64828;49.956;8.636;2023-07-08T01:21:05;10.13;;;6.50;;
76098;SDS011;64828;49.956;8.636;2023-07-08T01:21:57;9.48;;;6.20;;
76098;SDS011;64828;49.956;8.636;2023-07-08T01:22:18;10.15;;;6.40;;
76098;SDS011;64828;49.956;8.636;2023-07-08T01:22:34;9.80;;;5.97;;
76098;SDS011;64828;49.956;8.636;2023-07-08T01:22:51;8.93;;;5.97;;
76098;SDS011;64828;49.956;8.636;2023-07-08T01:23:07;9.90;;;6.40;;
76098;SDS011;64828;49.956;8.636;2023-07-08T01:23:25;10.43;;;6.40;;
76098;SDS011;64828;49.956;8.636;2023-07-08T01:23:42;10.20;;;6.20;;
76098;SDS011;64828;49.956;8.636;2023-07-08T01:23:58;9.77;;;6.17;;
76098;SDS011;64828;49.956;8.636;2023-07-08T01:24:16;11.00;;;6.53;;
76098;SDS011;64828;49.956;8.636;2023-07-08T01:24:33;9.93;;;6.30;;
76098;SDS011;64828;49.956;8.636;2023-07-08T01:24:53;9.90;;;6.18;;
76098;SDS011;64828;49.956;8.636;2023-07-08T01:25:09;9.57;;;6.10;;
76098;SDS011;64828;49.956;8.636;2023-07-08T01:25:28;10.02;;;6.30;;
76098;SDS011;64828;49.956;8.636;2023-07-08T01:25:44;10.33;;;6.60;;
76098;SDS011;64828;49.956;8.636;2023-07-08T01:26:00;10.32;;;6.55;;
76098;SDS011;64828;49.956;8.636;2023-07-08T01:26:17;9.75;;;6.32;;
76098;SDS011;64828;49.956;8.636;2023-07-08T01:26:34;9.95;;;6.20;;
76098;SDS011;64828;49.956;8.636;2023-07-08T01:26:55;11.25;;;6.47;;
76098;SDS011;64828;49.956;8.636;2023-07-08T01:27:13;10.85;;;6.72;;
76098;SDS011;64828;49.956;8.636;2023-07-08T01:27:34;11.43;;;6.70;;
76098;SDS011;64828;49.956;8.636;2023-07-08T01:27:57;10.85;;;6.47;;
76098;SDS011;64828;49.956;8.636;2023-07-08T01:28:13;9.93;;;6.43;;
76098;SDS011;64828;49.956;8.636;2023-07-08T01:28:30;9.63;;;6.25;;
76098;SDS011;64828;49.956;8.636;2023-07-08T01:28:46;10.82;;;6.35;;
76098;SDS011;64828;49.956;8.636;2023-07-08T01:29:02;9.30;;;6.23;;
76098;SDS011;64828;49.956;8.636;2023-07-08T01:29:18;8.45;;;6.10;;
76098;SDS011;64828;49.956;8.636;2023-07-08T01:29:34;9.70;;;6.20;;
76098;SDS011;64828;49.956;8.636;2023-07-08T01:29:50;9.90;;;6.20;;
76098;SDS011;64828;49.956;8.636;2023-07-08T01:30:12;10.20;;;6.63;;
76098;SDS011;64828;49.956;8.636;2023-07-08T01:30:30;10.27;;;6.60;;
76098;SDS011;64828;49.956;8.636;2023-07-08T01:30:46;11.10;;;6.43;;
76098;SDS011;64828;49.956;8.636;2023-07-08T01:31:03;10.60;;;6.28;;
76098;SDS011;64828;49.956;8.636;2023-07-08T01:31:20;9.38;;;6.13;;
76098;SDS011;64828;49.956;8.636;2023-07-08T01:31:37;11.20;;;6.35;;
76098;SDS011;64828;49.956;8.636;2023-07-08T01:31:57;11.60;;;6.05;;
76098;SDS011;64828;49.956;8.636;2023-07-08T01:32:17;10.43;;;6.28;;
76098;SDS011;64828;49.956;8.636;2023-07-08T01:32:34;9.27;;;6.10;;
76098;SDS011;64828;49.956;8.636;2023-07-08T01:33:02;9.40;;;6.13;;
76098;SDS011;64828;49.956;8.636;2023-07-08T01:33:27;8.68;;;5.82;;
76098;SDS011;64828;49.956;8.636;2023-07-08T01:33:43;8.50;;;5.90;;
76098;SDS011;64828;49.956;8.636;2023-07-08T01:33:59;9.00;;;6.10;;
76098;SDS011;64828;49.956;8.636;2023-07-08T01:34:15;9.65;;;6.22;;
76098;SDS011;64828;49.956;8.636;2023-07-08T01:34:33;10.23;;;6.18;;
76098;SDS011;64828;49.956;8.636;2023-07-08T01:34:52;11.38;;;6.32;;
76098;SDS011;64828;49.956;8.636;2023-07-08T01:35:15;11.50;;;6.65;;
76098;SDS011;64828;49.956;8.636;2023-07-08T01:35:32;9.77;;;6.45;;
76098;SDS011;64828;49.956;8.636;2023-07-08T01:35:49;10.05;;;6.45;;
76098;SDS011;64828;49.956;8.636;2023-07-08T01:36:08;9.23;;;6.25;;
76098;SDS011;64828;49.956;8.636;2023-07-08T01:36:29;9.48;;;6.43;;
76098;SDS011;64828;49.956;8.636;2023-07-08T01:36:54;10.93;;;6.10;;
76098;SDS011;64828;49.956;8.636;2023-07-08T01:37:13;10.55;;;6.47;;
76098;SDS011;64828;49.956;8.636;2023-07-08T01:37:37;9.27;;;6.22;;
76098;SDS011;64828;49.956;8.636;2023-07-08T01:38:02;9.90;;;6.38;;
76098;SDS011;64828;49.956;8.636;2023-07-08T01:38:32;9.48;;;6.32;;
76098;SDS011;64828;49.956;8.636;2023-07-08T01:38:48;9.93;;;6.90;;
76098;SDS011;64828;49.956;8.636;2023-07-08T01:39:04;10.43;;;6.73;;
76098;SDS011;64828;49.956;8.636;2023-07-08T01:39:20;10.65;;;6.22;;
76098;SDS011;64828;49.956;8.636;2023-07-08T01:39:38;10.60;;;6.20;;
76098;SDS011;64828;49.956;8.636;2023-07-08T01:39:54;10.02;;;6.40;;
76098;SDS011;64828;49.956;8.636;2023-07-08T01:40:13;9.83;;;6.47;;
76098;SDS011;64828;49.956;8.636;2023-07-08T01:40:53;11.85;;;6.70;;
76098;SDS011;64828;49.956;8.636;2023-07-08T01:41:12;9.43;;;6.30;;
76098;SDS011;64828;49.956;8.636;2023-07-08T01:41:31;10.15;;;6.43;;
76098;SDS011;64828;49.956;8.636;2023-07-08T01:41:46;9.60;;;6.15;;
76098;SDS011;64828;49.956;8.636;2023-07-08T01:42:02;8.95;;;6.30;;
76098;SDS011;64828;49.956;8.636;2023-07-08T01:42:18;8.93;;;6.13;;
76098;SDS011;64828;49.956;8.636;2023-07-08T01:42:33;8.75;;;5.95;;
76098;SDS011;64828;49.956;8.636;2023-07-08T01:42:49;9.15;;;5.90;;
76098;SDS011;64828;49.956;8.636;2023-07-08T01:43:05;9.23;;;5.82;;
76098;SDS011;64828;49.956;8.636;2023-07-08T01:43:21;8.57;;;5.80;;
76098;SDS011;64828;49.956;8.636;2023-07-08T01:43:37;9.32;;;5.80;;
76098;SDS011;64828;49.956;8.636;2023-07-08T01:43:52;10.40;;;6.10;;
76098;SDS011;64828;49.956;8.636;2023-07-08T01:44:53;10.00;;;6.35;;
76098;SDS011;64828;49.956;8.636;2023-07-08T01:45:12;10.25;;;6.55;;
76098;SDS011;64828;49.956;8.636;2023-07-08T01:45:31;9.23;;;6.00;;
76098;SDS011;64828;49.956;8.636;2023-07-08T01:45:54;9.23;;;6.32;;
76098;SDS011;64828;49.956;8.636;2023-07-08T01:46:20;9.25;;;6.32;;
76098;SDS011;64828;49.956;8.636;2023-07-08T01:46:41;10.00;;;6.20;;
76098;SDS011;64828;49.956;8.636;2023-07-08T01:46:58;10.07;;;6.07;;
76098;SDS011;64828;49.956;8.636;2023-07-08T01:47:20;9.90;;;6.43;;
76098;SDS011;64828;49.956;8.636;2023-07-08T01:47:37;9.38;;;6.60;;
76098;SDS011;64828;49.956;8.636;2023-07-08T01:48:16;10.57;;;6.43;;
76098;SDS011;64828;49.956;8.636;2023-07-08T01:48:36;8.53;;;6.13;;
76098;SDS011;64828;49.956;8.636;2023-07-08T01:49:00;9.45;;;6.40;;
76098;SDS011;64828;49.956;8.636;2023-07-08T01:49:16;9.55;;;6.47;;
76098;SDS011;64828;49.956;8.636;2023-07-08T01:49:34;10.45;;;6.40;;
76098;SDS011;64828;49.956;8.636;2023-07-08T01:49:53;11.02;;;6.53;;
76098;SDS011;64828;49.956;8.636;2023-07-08T01:50:09;10.43;;;6.30;;
76098;SDS011;64828;49.956;8.636;2023-07-08T01:50:26;9.50;;;6.22;;
76098;SDS011;64828;49.956;8.636;2023-07-08T01:50:57;9.13;;;6.13;;
76098;SDS011;64828;49.956;8.636;2023-07-08T01:51:17;10.63;;;6.32;;
76098;SDS011;64828;49.956;8.636;2023-07-08T01:51:34;11.00;;;6.55;;
76098;SDS011;64828;49.956;8.636;2023-07-08T01:51:50;10.80;;;6.50;;
76098;SDS011;64828;49.956;8.636;2023-07-08T01:52:06;9.63;;;6.25;;
76098;SDS011;64828;49.956;8.636;2023-07-08T01:52:23;10.00;;;6.45;;
76098;SDS011;64828;49.956;8.636;2023-07-08T01:52:39;9.13;;;6.03;;
76098;SDS011;64828;49.956;8.636;2023-07-08T01:52:56;9.45;;;6.10;;
76098;SDS011;64828;49.956;8.636;2023-07-08T01:53:16;9.80;;;6.30;;
76098;SDS011;64828;49.956;8.636;2023-07-08T01:53:38;9.95;;;6.22;;
76098;SDS011;64828;49.956;8.636;2023-07-08T01:53:56;8.98;;;6.05;;
76098;SDS011;64828;49.956;8.636;2023-07-08T01:54:12;10.40;;;6.38;;
76098;SDS011;64828;49.956;8.636;2023-07-08T01:54:27;10.73;;;6.60;;
76098;SDS011;64828;49.956;8.636;2023-07-08T01:54:43;10.38;;;6.45;;
76098;SDS011;64828;49.956;8.636;2023-07-08T01:54:58;11.17;;;6.20;;
76098;SDS011;64828;49.956;8.636;2023-07-08T01:55:14;10.18;;;6.13;;
76098;SDS011;64828;49.956;8.636;2023-07-08T01:55:30;9.20;;;6.30;;
76098;SDS011;64828;49.956;8.636;2023-07-08T01:55:46;8.70;;;6.22;;
76098;SDS011;64828;49.956;8.636;2023-07-08T01:56:02;9.15;;;6.35;;
76098;SDS011;64828;49.956;8.636;2023-07-08T01:56:19;11.20;;;6.65;;
76098;SDS011;64828;49.956;8.636;2023-07-08T01:56:35;9.70;;;6.30;;
76098;SDS011;64828;49.956;8.636;2023-07-08T01:56:54;9.43;;;6.20;;
76098;SDS011;64828;49.956;8.636;2023-07-08T01:57:11;11.05;;;6.82;;
76098;SDS011;64828;49.956;8.636;2023-07-08T01:57:26;10.00;;;6.45;;
76098;SDS011;64828;49.956;8.636;2023-07-08T01:57:42;9.55;;;6.05;;
76098;SDS011;64828;49.956;8.636;2023-07-08T01:57:58;10.87;;;6.27;;
76098;SDS011;64828;49.956;8.636;2023-07-08T01:58:13;11.63;;;6.30;;
76098;SDS011;64828;49.956;8.636;2023-07-08T01:58:29;11.63;;;6.50;;
76098;SDS011;64828;49.956;8.636;2023-07-08T01:58:44;10.82;;;6.72;;